Language selection

My Weather Profile Weather Topics  | 

Pacific - North Coast: Past 24 Hour Conditions

 

Dixon Entrance Central - 46145

08:00 AM PDT 27 September 2021Buoy position: 54.22N 132.27W
Disclaimer

This table is a summary of hourly weather conditions for the past 24 hours.
Please note that these observations might not always be representative of weather conditions over their associated marine area.

Date / Time
(PDT)
Wind(knots) Wave height(m) Wave period(s) Pressure(kPa) Air tempC) Water tempC)
27 September 2021
8:00 NW 2 gust 6 0.8 13.0 98.9 11 11
7:00 N 8 gust 10 0.8 14.0 98.9 10 11
6:00 NE 13 gust 16 0.9 14.0 98.8 10 11
5:00 ENE 16 gust 19 0.9 15.0 98.8 10 11
4:00 E 12 gust 13 1.1 5.0 98.8 11 11
3:00 E 10 gust 13 1.5 6.0 98.8 11 11
2:00 SE 16 gust 17 1.5 6.0 98.7 12 11
1:00 ESE 22 gust 23 1.3 6.0 98.7 12 11
0:00 ESE 19 gust 25 1.5 6.0 98.7 12 12
26 September 2021
23:00 ESE 19 gust 25 1.5 5.0 98.7 12 12
22:00 ESE 22 gust 27 1.6 5.0 98.8 12 12
21:00 SE 22 gust 25 1.6 5.0 98.8 12 12
20:00 SE 22 gust 25 1.6 5.0 98.9 12 12
19:00 ESE 22 gust 27 1.7 6.0 98.9 12 12
18:00 E 22 gust 25 2.1 6.0 99.0 11 12
17:00 ESE 23 gust 27 2.4 6.0 99.0 12 11
16:00 ESE 29 gust 37 2.1 6.0 99.0 12 11
15:00 ESE 27 gust 35 1.5 5.0 99.2 11 11
14:00 ESE 23 gust 27 1.2 10.0 99.3 11 12
13:00 ESE 19 gust 23 1.3 10.0 99.5 11 12
12:00 ESE 17 gust 23 1.3 10.0 99.5 11 12
11:00 ESE 16 gust 17 1.4 11.0 99.5 11 11
10:00 ESE 12 gust 13 1.4 10.0 99.6 11 11
9:00 SE 8 gust 10 1.5 12.0 99.6 10 11
8:00 ESE 8 gust 10 1.5 10.0 99.6 10 11

Zoom-in to make a selection

Map of Pacific - North Coast marine weather areas Middle Nomad - 46004 South Nomad - 46036 Dixon Entrance Central - 46145 South Moresby - 46147 Nanakwa Shoal - 46181 North Hecate Strait - 46183 North Nomad - 46184 South Hecate Strait - 46185 West Sea Otter - 46204 West Dixon Entrance - 46205 East Dellwood - 46207 West Moresby - 46208 Sartine Island Cape St.James Kindakun Rocks Langara Island Masset Municipal Airport Rose Spit Sandspit Airport Bella Bella Airport Bella Coola Airport Bonilla Island Cathedral Point Cumshewa Island Grey Islet Holland Rock Lucy Islands Lightstation Prince Rupert Airport
Legend:
buoy Buoy
land station Land Station

Pacific - North Coast Area

Another Region

What we are doing

Date modified: